sensor_id;sensor_type;location;lat;lon;timestamp;temperature;humidity
1103;DHT22;538;42.654;23.376;2023-05-21T00:01:39;16.10;50.30
1103;DHT22;538;42.654;23.376;2023-05-21T00:04:06;16.10;51.00
1103;DHT22;538;42.654;23.376;2023-05-21T00:06:34;16.00;51.30
1103;DHT22;538;42.654;23.376;2023-05-21T00:09:03;16.10;51.10
1103;DHT22;538;42.654;23.376;2023-05-21T00:11:30;15.90;51.20
1103;DHT22;538;42.654;23.376;2023-05-21T00:13:58;16.10;51.40
1103;DHT22;538;42.654;23.376;2023-05-21T00:16:25;16.00;50.40
1103;DHT22;538;42.654;23.376;2023-05-21T00:18:52;16.00;50.40
1103;DHT22;538;42.654;23.376;2023-05-21T00:21:20;16.00;50.30
1103;DHT22;538;42.654;23.376;2023-05-21T00:23:50;15.90;50.30
1103;DHT22;538;42.654;23.376;2023-05-21T00:26:20;15.90;50.50
1103;DHT22;538;42.654;23.376;2023-05-21T00:28:48;16.00;51.30
1103;DHT22;538;42.654;23.376;2023-05-21T00:33:43;16.00;52.20
1103;DHT22;538;42.654;23.376;2023-05-21T00:36:10;15.90;52.20
1103;DHT22;538;42.654;23.376;2023-05-21T00:38:39;15.90;52.30
1103;DHT22;538;42.654;23.376;2023-05-21T00:41:08;15.80;52.30
1103;DHT22;538;42.654;23.376;2023-05-21T00:43:38;15.80;52.30
1103;DHT22;538;42.654;23.376;2023-05-21T00:46:05;15.80;52.70
1103;DHT22;538;42.654;23.376;2023-05-21T00:48:32;15.80;52.10
1103;DHT22;538;42.654;23.376;2023-05-21T00:53:27;15.70;48.30
1103;DHT22;538;42.654;23.376;2023-05-21T00:55:55;15.70;46.10
1103;DHT22;538;42.654;23.376;2023-05-21T00:58:22;15.60;45.70
1103;DHT22;538;42.654;23.376;2023-05-21T01:00:52;15.40;44.20
1103;DHT22;538;42.654;23.376;2023-05-21T01:03:21;15.50;43.40
1103;DHT22;538;42.654;23.376;2023-05-21T01:05:49;15.20;43.30
1103;DHT22;538;42.654;23.376;2023-05-21T01:08:17;15.20;43.30
1103;DHT22;538;42.654;23.376;2023-05-21T01:10:46;15.40;42.60
1103;DHT22;538;42.654;23.376;2023-05-21T01:13:14;15.30;43.30
1103;DHT22;538;42.654;23.376;2023-05-21T01:18:11;15.30;47.90
1103;DHT22;538;42.654;23.376;2023-05-21T01:20:40;15.20;49.40
1103;DHT22;538;42.654;23.376;2023-05-21T01:23:15;15.20;50.90
1103;DHT22;538;42.654;23.376;2023-05-21T01:25:42;15.40;52.00
1103;DHT22;538;42.654;23.376;2023-05-21T01:28:10;15.30;53.20
1103;DHT22;538;42.654;23.376;2023-05-21T01:30:38;15.40;54.10
1103;DHT22;538;42.654;23.376;2023-05-21T01:33:18;15.40;54.90
1103;DHT22;538;42.654;23.376;2023-05-21T01:35:49;15.50;55.90
1103;DHT22;538;42.654;23.376;2023-05-21T01:38:25;15.50;56.50
1103;DHT22;538;42.654;23.376;2023-05-21T01:40:55;15.40;57.00
1103;DHT22;538;42.654;23.376;2023-05-21T01:43:24;15.60;57.90
1103;DHT22;538;42.654;23.376;2023-05-21T01:45:54;15.60;58.30
1103;DHT22;538;42.654;23.376;2023-05-21T01:48:23;15.50;57.80
1103;DHT22;538;42.654;23.376;2023-05-21T01:50:51;15.50;57.20
1103;DHT22;538;42.654;23.376;2023-05-21T01:53:21;15.60;58.70
1103;DHT22;538;42.654;23.376;2023-05-21T01:55:48;15.60;59.70
1103;DHT22;538;42.654;23.376;2023-05-21T01:58:16;15.60;59.30
1103;DHT22;538;42.654;23.376;2023-05-21T02:00:43;15.60;59.70
1103;DHT22;538;42.654;23.376;2023-05-21T02:03:12;15.60;59.30
1103;DHT22;538;42.654;23.376;2023-05-21T02:05:39;15.60;58.90
1103;DHT22;538;42.654;23.376;2023-05-21T02:08:06;15.60;59.80
1103;DHT22;538;42.654;23.376;2023-05-21T02:10:35;15.50;60.40
1103;DHT22;538;42.654;23.376;2023-05-21T02:15:30;15.60;58.70
1103;DHT22;538;42.654;23.376;2023-05-21T02:17:59;15.50;59.70
1103;DHT22;538;42.654;23.376;2023-05-21T02:20:29;15.50;62.40
1103;DHT22;538;42.654;23.376;2023-05-21T02:25:24;15.30;63.20
1103;DHT22;538;42.654;23.376;2023-05-21T02:27:52;15.30;64.00
1103;DHT22;538;42.654;23.376;2023-05-21T02:30:21;15.30;64.20
1103;DHT22;538;42.654;23.376;2023-05-21T02:32:48;15.30;63.50
1103;DHT22;538;42.654;23.376;2023-05-21T02:35:15;15.30;65.00
1103;DHT22;538;42.654;23.376;2023-05-21T02:37:42;15.30;66.20
1103;DHT22;538;42.654;23.376;2023-05-21T02:42:38;15.20;65.70
1103;DHT22;538;42.654;23.376;2023-05-21T02:45:09;15.30;67.30
1103;DHT22;538;42.654;23.376;2023-05-21T02:47:36;15.20;68.00
1103;DHT22;538;42.654;23.376;2023-05-21T02:50:05;15.10;68.50
1103;DHT22;538;42.654;23.376;2023-05-21T02:52:33;15.00;68.40
1103;DHT22;538;42.654;23.376;2023-05-21T02:55:00;15.00;68.30
1103;DHT22;538;42.654;23.376;2023-05-21T02:57:27;15.10;70.40
1103;DHT22;538;42.654;23.376;2023-05-21T03:02:23;15.00;70.70
1103;DHT22;538;42.654;23.376;2023-05-21T03:07:18;15.00;70.80
1103;DHT22;538;42.654;23.376;2023-05-21T03:09:46;15.00;71.90
1103;DHT22;538;42.654;23.376;2023-05-21T03:14:41;15.10;71.50
1103;DHT22;538;42.654;23.376;2023-05-21T03:17:08;15.00;71.10
1103;DHT22;538;42.654;23.376;2023-05-21T03:19:40;15.00;70.80
1103;DHT22;538;42.654;23.376;2023-05-21T03:22:07;15.20;72.10
1103;DHT22;538;42.654;23.376;2023-05-21T03:24:36;15.00;72.30
1103;DHT22;538;42.654;23.376;2023-05-21T03:27:03;15.20;72.60
1103;DHT22;538;42.654;23.376;2023-05-21T03:29:31;15.20;72.60
1103;DHT22;538;42.654;23.376;2023-05-21T03:31:59;15.20;72.20
1103;DHT22;538;42.654;23.376;2023-05-21T03:36:55;15.40;73.30
1103;DHT22;538;42.654;23.376;2023-05-21T03:39:22;15.20;73.10
1103;DHT22;538;42.654;23.376;2023-05-21T03:44:17;15.30;71.30
1103;DHT22;538;42.654;23.376;2023-05-21T03:49:13;15.40;69.80
1103;DHT22;538;42.654;23.376;2023-05-21T03:51:40;15.40;71.30
1103;DHT22;538;42.654;23.376;2023-05-21T03:54:08;15.50;71.80
1103;DHT22;538;42.654;23.376;2023-05-21T03:56:35;15.60;72.50
1103;DHT22;538;42.654;23.376;2023-05-21T03:59:02;15.50;72.70
1103;DHT22;538;42.654;23.376;2023-05-21T04:01:29;15.50;72.80
1103;DHT22;538;42.654;23.376;2023-05-21T04:08:52;15.60;72.10
1103;DHT22;538;42.654;23.376;2023-05-21T04:11:21;15.60;70.80
1103;DHT22;538;42.654;23.376;2023-05-21T04:13:48;15.70;69.30
1103;DHT22;538;42.654;23.376;2023-05-21T04:16:16;15.60;69.60
1103;DHT22;538;42.654;23.376;2023-05-21T04:18:43;15.90;70.20
1103;DHT22;538;42.654;23.376;2023-05-21T04:21:10;15.90;69.30
1103;DHT22;538;42.654;23.376;2023-05-21T04:23:37;15.70;68.40
1103;DHT22;538;42.654;23.376;2023-05-21T04:26:04;15.90;67.80
1103;DHT22;538;42.654;23.376;2023-05-21T04:28:33;15.90;68.40
1103;DHT22;538;42.654;23.376;2023-05-21T04:33:30;15.90;67.20
1103;DHT22;538;42.654;23.376;2023-05-21T04:35:57;15.90;64.80
1103;DHT22;538;42.654;23.376;2023-05-21T04:38:24;15.90;64.80
1103;DHT22;538;42.654;23.376;2023-05-21T04:40:51;16.00;64.10
1103;DHT22;538;42.654;23.376;2023-05-21T04:43:19;15.90;63.90
1103;DHT22;538;42.654;23.376;2023-05-21T04:45:51;16.00;64.30
1103;DHT22;538;42.654;23.376;2023-05-21T04:48:19;16.10;64.90
1103;DHT22;538;42.654;23.376;2023-05-21T04:50:47;16.10;65.90
1103;DHT22;538;42.654;23.376;2023-05-21T04:53:14;16.10;65.30
1103;DHT22;538;42.654;23.376;2023-05-21T04:58:09;16.40;63.80
1103;DHT22;538;42.654;23.376;2023-05-21T05:00:37;16.40;63.00
1103;DHT22;538;42.654;23.376;2023-05-21T05:03:08;16.30;61.50
1103;DHT22;538;42.654;23.376;2023-05-21T05:05:35;16.60;61.20
1103;DHT22;538;42.654;23.376;2023-05-21T05:08:03;16.60;60.70
1103;DHT22;538;42.654;23.376;2023-05-21T05:10:30;16.60;59.40
1103;DHT22;538;42.654;23.376;2023-05-21T05:12:57;16.80;58.80
1103;DHT22;538;42.654;23.376;2023-05-21T05:15:24;16.70;58.40
1103;DHT22;538;42.654;23.376;2023-05-21T05:17:51;16.90;57.80
1103;DHT22;538;42.654;23.376;2023-05-21T05:20:20;16.90;57.70
1103;DHT22;538;42.654;23.376;2023-05-21T05:22:47;16.90;54.20
1103;DHT22;538;42.654;23.376;2023-05-21T05:25:14;17.10;52.30
1103;DHT22;538;42.654;23.376;2023-05-21T05:27:42;17.00;54.00
1103;DHT22;538;42.654;23.376;2023-05-21T05:30:10;16.90;54.20
1103;DHT22;538;42.654;23.376;2023-05-21T05:35:05;17.10;46.40
1103;DHT22;538;42.654;23.376;2023-05-21T05:37:34;17.00;46.30
1103;DHT22;538;42.654;23.376;2023-05-21T05:40:05;17.20;44.20
1103;DHT22;538;42.654;23.376;2023-05-21T05:42:33;17.20;44.20
1103;DHT22;538;42.654;23.376;2023-05-21T05:45:00;17.40;44.90
1103;DHT22;538;42.654;23.376;2023-05-21T05:47:27;17.30;45.20
1103;DHT22;538;42.654;23.376;2023-05-21T05:49:54;17.60;45.00
1103;DHT22;538;42.654;23.376;2023-05-21T05:52:21;17.50;43.30
1103;DHT22;538;42.654;23.376;2023-05-21T05:54:50;17.70;40.60
1103;DHT22;538;42.654;23.376;2023-05-21T05:57:17;17.70;39.10
1103;DHT22;538;42.654;23.376;2023-05-21T05:59:44;17.80;40.20
1103;DHT22;538;42.654;23.376;2023-05-21T06:02:12;18.00;39.40
1103;DHT22;538;42.654;23.376;2023-05-21T06:07:06;17.90;38.40
1103;DHT22;538;42.654;23.376;2023-05-21T06:09:34;18.10;38.30
1103;DHT22;538;42.654;23.376;2023-05-21T06:12:02;18.10;36.60
1103;DHT22;538;42.654;23.376;2023-05-21T06:14:30;18.30;34.10
1103;DHT22;538;42.654;23.376;2023-05-21T06:19:24;18.30;31.80
1103;DHT22;538;42.654;23.376;2023-05-21T06:21:51;18.40;30.70
1103;DHT22;538;42.654;23.376;2023-05-21T06:24:18;18.50;28.40
1103;DHT22;538;42.654;23.376;2023-05-21T06:29:14;18.40;27.30
1103;DHT22;538;42.654;23.376;2023-05-21T06:31:42;18.40;27.40
1103;DHT22;538;42.654;23.376;2023-05-21T06:39:04;18.50;25.60
1103;DHT22;538;42.654;23.376;2023-05-21T06:41:31;18.60;26.10
1103;DHT22;538;42.654;23.376;2023-05-21T06:43:58;18.60;27.30
1103;DHT22;538;42.654;23.376;2023-05-21T06:46:27;18.70;26.10
1103;DHT22;538;42.654;23.376;2023-05-21T06:56:16;18.60;23.40
1103;DHT22;538;42.654;23.376;2023-05-21T07:01:11;18.70;23.70
1103;DHT22;538;42.654;23.376;2023-05-21T07:03:39;18.70;23.00
1103;DHT22;538;42.654;23.376;2023-05-21T07:06:06;18.90;23.30
1103;DHT22;538;42.654;23.376;2023-05-21T07:08:34;19.00;24.50
1103;DHT22;538;42.654;23.376;2023-05-21T07:11:01;19.00;22.20
1103;DHT22;538;42.654;23.376;2023-05-21T07:13:28;18.90;23.50
1103;DHT22;538;42.654;23.376;2023-05-21T07:15:55;18.90;22.80
1103;DHT22;538;42.654;23.376;2023-05-21T07:18:22;18.90;23.50
1103;DHT22;538;42.654;23.376;2023-05-21T07:20:51;19.00;23.20
1103;DHT22;538;42.654;23.376;2023-05-21T07:25:46;19.00;23.70
1103;DHT22;538;42.654;23.376;2023-05-21T07:28:13;19.10;24.10
1103;DHT22;538;42.654;23.376;2023-05-21T07:30:43;19.20;24.20
1103;DHT22;538;42.654;23.376;2023-05-21T07:33:10;19.30;24.60
1103;DHT22;538;42.654;23.376;2023-05-21T07:35:38;19.30;24.90
1103;DHT22;538;42.654;23.376;2023-05-21T07:38:08;19.40;22.40
1103;DHT22;538;42.654;23.376;2023-05-21T07:40:35;19.50;22.90
1103;DHT22;538;42.654;23.376;2023-05-21T07:45:32;19.70;23.70
1103;DHT22;538;42.654;23.376;2023-05-21T07:47:59;19.70;24.00
1103;DHT22;538;42.654;23.376;2023-05-21T07:52:53;20.20;22.70
1103;DHT22;538;42.654;23.376;2023-05-21T07:55:22;20.20;22.50
1103;DHT22;538;42.654;23.376;2023-05-21T08:05:12;20.50;15.30
1103;DHT22;538;42.654;23.376;2023-05-21T08:07:41;20.60;14.60
1103;DHT22;538;42.654;23.376;2023-05-21T08:10:08;20.60;14.90
1103;DHT22;538;42.654;23.376;2023-05-21T08:12:37;20.70;14.30
1103;DHT22;538;42.654;23.376;2023-05-21T08:15:05;21.00;13.50
1103;DHT22;538;42.654;23.376;2023-05-21T08:20:00;21.40;13.00
1103;DHT22;538;42.654;23.376;2023-05-21T08:22:28;21.30;12.50
1103;DHT22;538;42.654;23.376;2023-05-21T08:24:55;21.40;11.80
1103;DHT22;538;42.654;23.376;2023-05-21T08:27:22;21.60;12.80
1103;DHT22;538;42.654;23.376;2023-05-21T08:29:51;21.90;11.40
1103;DHT22;538;42.654;23.376;2023-05-21T08:34:46;21.80;10.60
1103;DHT22;538;42.654;23.376;2023-05-21T08:37:13;22.00;11.20
1103;DHT22;538;42.654;23.376;2023-05-21T08:39:40;21.80;10.20
1103;DHT22;538;42.654;23.376;2023-05-21T08:42:16;22.00;10.60
1103;DHT22;538;42.654;23.376;2023-05-21T08:44:48;22.00;9.60
1103;DHT22;538;42.654;23.376;2023-05-21T08:47:22;22.20;9.60
1103;DHT22;538;42.654;23.376;2023-05-21T08:49:53;22.20;9.60
1103;DHT22;538;42.654;23.376;2023-05-21T08:52:21;22.30;9.60
1103;DHT22;538;42.654;23.376;2023-05-21T08:54:50;22.40;9.70
1103;DHT22;538;42.654;23.376;2023-05-21T08:57:18;22.50;10.50
1103;DHT22;538;42.654;23.376;2023-05-21T09:02:13;22.80;10.00
1103;DHT22;538;42.654;23.376;2023-05-21T09:04:45;22.60;9.80
1103;DHT22;538;42.654;23.376;2023-05-21T09:07:14;22.80;10.60
1103;DHT22;538;42.654;23.376;2023-05-21T09:09:47;22.70;10.90
1103;DHT22;538;42.654;23.376;2023-05-21T09:14:44;23.00;11.00
1103;DHT22;538;42.654;23.376;2023-05-21T09:17:13;22.90;7.90
1103;DHT22;538;42.654;23.376;2023-05-21T09:20:10;23.20;8.80
1103;DHT22;538;42.654;23.376;2023-05-21T09:22:39;23.30;6.20
1103;DHT22;538;42.654;23.376;2023-05-21T09:25:08;23.10;6.00
1103;DHT22;538;42.654;23.376;2023-05-21T09:30:09;23.20;4.70
1103;DHT22;538;42.654;23.376;2023-05-21T09:32:36;23.10;6.00
1103;DHT22;538;42.654;23.376;2023-05-21T09:35:08;23.10;5.50
1103;DHT22;538;42.654;23.376;2023-05-21T09:37:38;23.30;4.00
1103;DHT22;538;42.654;23.376;2023-05-21T09:40:12;23.30;4.40
1103;DHT22;538;42.654;23.376;2023-05-21T09:42:40;23.50;3.60
1103;DHT22;538;42.654;23.376;2023-05-21T09:45:10;23.30;4.80
1103;DHT22;538;42.654;23.376;2023-05-21T09:47:41;23.50;2.80
1103;DHT22;538;42.654;23.376;2023-05-21T09:50:17;23.50;4.00
1103;DHT22;538;42.654;23.376;2023-05-21T09:52:45;23.80;5.40
1103;DHT22;538;42.654;23.376;2023-05-21T09:55:13;24.00;5.20
1103;DHT22;538;42.654;23.376;2023-05-21T09:57:41;22.40;1.00
1103;DHT22;538;42.654;23.376;2023-05-21T10:00:17;24.20;1.00
1103;DHT22;538;42.654;23.376;2023-05-21T10:02:46;24.50;2.80
1103;DHT22;538;42.654;23.376;2023-05-21T10:05:15;24.60;3.40
1103;DHT22;538;42.654;23.376;2023-05-21T10:07:47;24.70;1.00
1103;DHT22;538;42.654;23.376;2023-05-21T10:10:30;24.70;1.00
1103;DHT22;538;42.654;23.376;2023-05-21T10:12:59;24.80;1.00
1103;DHT22;538;42.654;23.376;2023-05-21T10:15:34;24.80;1.00
1103;DHT22;538;42.654;23.376;2023-05-21T10:18:03;25.00;1.00
1103;DHT22;538;42.654;23.376;2023-05-21T10:20:35;25.00;1.00
1103;DHT22;538;42.654;23.376;2023-05-21T10:23:04;24.90;1.00
1103;DHT22;538;42.654;23.376;2023-05-21T10:27:59;24.90;1.00
1103;DHT22;538;42.654;23.376;2023-05-21T10:30:26;24.60;1.00
1103;DHT22;538;42.654;23.376;2023-05-21T10:32:56;24.40;1.00
1103;DHT22;538;42.654;23.376;2023-05-21T10:35:24;24.40;1.10
1103;DHT22;538;42.654;23.376;2023-05-21T10:37:53;24.30;1.00
1103;DHT22;538;42.654;23.376;2023-05-21T10:40:23;24.30;1.70
1103;DHT22;538;42.654;23.376;2023-05-21T10:43:24;24.60;2.00
1103;DHT22;538;42.654;23.376;2023-05-21T10:46:10;24.60;2.80
1103;DHT22;538;42.654;23.376;2023-05-21T10:48:57;24.90;1.00
1103;DHT22;538;42.654;23.376;2023-05-21T10:51:37;24.90;1.50
1103;DHT22;538;42.654;23.376;2023-05-21T10:57:04;24.80;2.30
1103;DHT22;538;42.654;23.376;2023-05-21T10:59:39;24.50;2.80
1103;DHT22;538;42.654;23.376;2023-05-21T11:02:09;24.50;2.90
1103;DHT22;538;42.654;23.376;2023-05-21T11:04:43;24.30;3.50
1103;DHT22;538;42.654;23.376;2023-05-21T11:08:20;24.00;3.10
1103;DHT22;538;42.654;23.376;2023-05-21T11:13:19;23.80;2.50
1103;DHT22;538;42.654;23.376;2023-05-21T11:19:18;23.40;3.40
1103;DHT22;538;42.654;23.376;2023-05-21T11:21:54;23.60;4.40
1103;DHT22;538;42.654;23.376;2023-05-21T11:24:22;23.50;3.90
1103;DHT22;538;42.654;23.376;2023-05-21T11:27:06;23.70;4.50
1103;DHT22;538;42.654;23.376;2023-05-21T11:29:38;23.70;3.50
1103;DHT22;538;42.654;23.376;2023-05-21T11:32:09;23.70;4.00
1103;DHT22;538;42.654;23.376;2023-05-21T11:34:44;23.60;5.40
1103;DHT22;538;42.654;23.376;2023-05-21T11:37:34;23.50;4.60
1103;DHT22;538;42.654;23.376;2023-05-21T11:40:25;23.50;5.40
1103;DHT22;538;42.654;23.376;2023-05-21T11:42:56;23.30;4.80
1103;DHT22;538;42.654;23.376;2023-05-21T11:45:29;23.20;4.50
1103;DHT22;538;42.654;23.376;2023-05-21T11:48:17;23.10;4.60
1103;DHT22;538;42.654;23.376;2023-05-21T11:50:55;23.00;4.30
1103;DHT22;538;42.654;23.376;2023-05-21T11:58:31;22.80;5.50
1103;DHT22;538;42.654;23.376;2023-05-21T12:01:00;22.70;5.80
1103;DHT22;538;42.654;23.376;2023-05-21T12:03:28;22.60;5.70
1103;DHT22;538;42.654;23.376;2023-05-21T12:06:03;22.50;5.60
1103;DHT22;538;42.654;23.376;2023-05-21T12:08:52;22.30;5.50
1103;DHT22;538;42.654;23.376;2023-05-21T12:11:24;22.40;5.50
1103;DHT22;538;42.654;23.376;2023-05-21T12:14:03;22.20;5.40
1103;DHT22;538;42.654;23.376;2023-05-21T12:16:44;22.20;5.40
1103;DHT22;538;42.654;23.376;2023-05-21T12:19:20;22.20;6.00
1103;DHT22;538;42.654;23.376;2023-05-21T12:24:24;22.20;7.20
1103;DHT22;538;42.654;23.376;2023-05-21T12:26:53;22.10;7.60
1103;DHT22;538;42.654;23.376;2023-05-21T12:30:01;22.00;7.90
1103;DHT22;538;42.654;23.376;2023-05-21T12:32:34;21.90;8.30
1103;DHT22;538;42.654;23.376;2023-05-21T12:35:05;21.90;8.70
1103;DHT22;538;42.654;23.376;2023-05-21T12:37:35;21.90;8.80
1103;DHT22;538;42.654;23.376;2023-05-21T12:45:58;21.90;9.70
1103;DHT22;538;42.654;23.376;2023-05-21T12:51:42;21.70;9.20
1103;DHT22;538;42.654;23.376;2023-05-21T12:54:14;21.70;9.20
1103;DHT22;538;42.654;23.376;2023-05-21T12:57:09;24.40;11.30
1103;DHT22;538;42.654;23.376;2023-05-21T12:59:51;21.80;9.20
1103;DHT22;538;42.654;23.376;2023-05-21T13:02:27;21.80;9.40
1103;DHT22;538;42.654;23.376;2023-05-21T13:05:09;21.70;9.70
1103;DHT22;538;42.654;23.376;2023-05-21T13:08:03;21.90;9.80
1103;DHT22;538;42.654;23.376;2023-05-21T13:18:05;22.00;10.10
1103;DHT22;538;42.654;23.376;2023-05-21T13:20:42;22.10;10.30
1103;DHT22;538;42.654;23.376;2023-05-21T13:25:41;22.20;9.70
1103;DHT22;538;42.654;23.376;2023-05-21T13:28:08;21.90;9.40
1103;DHT22;538;42.654;23.376;2023-05-21T13:30:44;22.30;9.30
1103;DHT22;538;42.654;23.376;2023-05-21T13:33:17;22.20;9.60
1103;DHT22;538;42.654;23.376;2023-05-21T13:36:52;22.30;9.70
1103;DHT22;538;42.654;23.376;2023-05-21T13:41:25;22.60;9.90
1103;DHT22;538;42.654;23.376;2023-05-21T13:49:24;22.40;9.90
1103;DHT22;538;42.654;23.376;2023-05-21T14:02:14;22.50;9.90
1103;DHT22;538;42.654;23.376;2023-05-21T14:05:09;22.40;9.80
1103;DHT22;538;42.654;23.376;2023-05-21T14:08:10;23.20;10.20
1103;DHT22;538;42.654;23.376;2023-05-21T14:10:46;22.50;10.10
1103;DHT22;538;42.654;23.376;2023-05-21T14:18:51;22.40;10.80
1103;DHT22;538;42.654;23.376;2023-05-21T14:21:35;22.50;10.10
1103;DHT22;538;42.654;23.376;2023-05-21T14:24:08;22.60;11.00
1103;DHT22;538;42.654;23.376;2023-05-21T14:31:57;22.80;10.40
1103;DHT22;538;42.654;23.376;2023-05-21T14:34:26;22.70;10.30
1103;DHT22;538;42.654;23.376;2023-05-21T14:36:55;22.90;10.00
1103;DHT22;538;42.654;23.376;2023-05-21T14:39:23;22.70;10.20
1103;DHT22;538;42.654;23.376;2023-05-21T14:44:34;22.60;9.90
1103;DHT22;538;42.654;23.376;2023-05-21T14:47:06;22.60;10.20
1103;DHT22;538;42.654;23.376;2023-05-21T14:52:07;22.70;10.50
1103;DHT22;538;42.654;23.376;2023-05-21T14:57:01;22.40;10.10
1103;DHT22;538;42.654;23.376;2023-05-21T15:01:59;22.10;9.50
1103;DHT22;538;42.654;23.376;2023-05-21T15:06:54;22.10;9.50
1103;DHT22;538;42.654;23.376;2023-05-21T15:09:30;22.10;9.70
1103;DHT22;538;42.654;23.376;2023-05-21T15:12:01;22.00;10.30
1103;DHT22;538;42.654;23.376;2023-05-21T15:16:57;21.80;10.10
1103;DHT22;538;42.654;23.376;2023-05-21T15:24:29;21.60;9.10
1103;DHT22;538;42.654;23.376;2023-05-21T15:26:59;21.60;9.30
1103;DHT22;538;42.654;23.376;2023-05-21T15:32:02;21.40;9.00
1103;DHT22;538;42.654;23.376;2023-05-21T15:37:20;21.50;9.10
1103;DHT22;538;42.654;23.376;2023-05-21T15:40:08;21.50;9.10
1103;DHT22;538;42.654;23.376;2023-05-21T15:50:17;21.50;9.10
1103;DHT22;538;42.654;23.376;2023-05-21T15:55:17;21.40;7.30
1103;DHT22;538;42.654;23.376;2023-05-21T16:00:19;21.60;6.70
1103;DHT22;538;42.654;23.376;2023-05-21T16:02:46;21.50;5.90
1103;DHT22;538;42.654;23.376;2023-05-21T16:07:46;21.20;6.20
1103;DHT22;538;42.654;23.376;2023-05-21T16:10:18;20.80;6.60
1103;DHT22;538;42.654;23.376;2023-05-21T16:12:51;20.70;7.30
1103;DHT22;538;42.654;23.376;2023-05-21T16:22:54;20.20;8.20
1103;DHT22;538;42.654;23.376;2023-05-21T16:25:26;20.20;8.40
1103;DHT22;538;42.654;23.376;2023-05-21T16:30:22;20.10;8.40
1103;DHT22;538;42.654;23.376;2023-05-21T16:32:58;19.90;8.50
1103;DHT22;538;42.654;23.376;2023-05-21T16:35:29;20.10;8.50
1103;DHT22;538;42.654;23.376;2023-05-21T16:40:35;19.80;8.70
1103;DHT22;538;42.654;23.376;2023-05-21T16:50:45;19.90;9.00
1103;DHT22;538;42.654;23.376;2023-05-21T16:55:42;20.00;9.10
1103;DHT22;538;42.654;23.376;2023-05-21T17:03:19;20.00;10.00
1103;DHT22;538;42.654;23.376;2023-05-21T17:10:42;19.90;10.50
1103;DHT22;538;42.654;23.376;2023-05-21T17:15:37;19.90;10.20
1103;DHT22;538;42.654;23.376;2023-05-21T17:25:27;20.10;10.00
1103;DHT22;538;42.654;23.376;2023-05-21T17:27:55;19.80;9.70
1103;DHT22;538;42.654;23.376;2023-05-21T17:30:24;20.10;10.20
1103;DHT22;538;42.654;23.376;2023-05-21T17:32:53;19.90;10.20
1103;DHT22;538;42.654;23.376;2023-05-21T17:37:52;20.00;10.60
1103;DHT22;538;42.654;23.376;2023-05-21T17:42:48;19.80;10.60
1103;DHT22;538;42.654;23.376;2023-05-21T17:45:20;19.90;11.10
1103;DHT22;538;42.654;23.376;2023-05-21T17:57:41;19.80;11.90
1103;DHT22;538;42.654;23.376;2023-05-21T18:00:13;19.70;11.90
1103;DHT22;538;42.654;23.376;2023-05-21T18:02:45;19.80;11.90
1103;DHT22;538;42.654;23.376;2023-05-21T18:10:08;19.60;11.80
1103;DHT22;538;42.654;23.376;2023-05-21T18:12:35;19.60;11.80
1103;DHT22;538;42.654;23.376;2023-05-21T18:15:04;19.50;11.70
1103;DHT22;538;42.654;23.376;2023-05-21T18:20:02;19.30;12.10
1103;DHT22;538;42.654;23.376;2023-05-21T18:22:30;19.30;12.30
1103;DHT22;538;42.654;23.376;2023-05-21T18:24:59;19.30;12.30
1103;DHT22;538;42.654;23.376;2023-05-21T18:29:56;19.10;12.40
1103;DHT22;538;42.654;23.376;2023-05-21T18:32:28;19.00;12.50
1103;DHT22;538;42.654;23.376;2023-05-21T18:37:25;19.10;12.90
1103;DHT22;538;42.654;23.376;2023-05-21T18:42:25;18.90;13.20
1103;DHT22;538;42.654;23.376;2023-05-21T18:44:52;18.80;13.20
1103;DHT22;538;42.654;23.376;2023-05-21T18:47:20;18.70;13.40
1103;DHT22;538;42.654;23.376;2023-05-21T18:54:43;18.80;14.50
1103;DHT22;538;42.654;23.376;2023-05-21T18:57:12;18.60;14.40
1103;DHT22;538;42.654;23.376;2023-05-21T19:04:34;18.70;14.90
1103;DHT22;538;42.654;23.376;2023-05-21T19:07:01;18.70;15.20
1103;DHT22;538;42.654;23.376;2023-05-21T19:11:57;18.50;15.00
1103;DHT22;538;42.654;23.376;2023-05-21T19:21:50;18.60;14.90
1103;DHT22;538;42.654;23.376;2023-05-21T19:26:48;18.30;14.90
1103;DHT22;538;42.654;23.376;2023-05-21T19:29:19;18.10;14.80
1103;DHT22;538;42.654;23.376;2023-05-21T19:34:15;18.20;14.90
1103;DHT22;538;42.654;23.376;2023-05-21T19:36:42;18.00;15.20
1103;DHT22;538;42.654;23.376;2023-05-21T19:41:37;17.90;15.80
1103;DHT22;538;42.654;23.376;2023-05-21T19:44:04;17.70;15.90
1103;DHT22;538;42.654;23.376;2023-05-21T19:46:33;17.60;16.10
1103;DHT22;538;42.654;23.376;2023-05-21T19:49:01;17.80;16.20
1103;DHT22;538;42.654;23.376;2023-05-21T19:51:29;17.80;16.30
1103;DHT22;538;42.654;23.376;2023-05-21T20:01:20;17.70;16.10
1103;DHT22;538;42.654;23.376;2023-05-21T20:03:51;17.70;16.20
1103;DHT22;538;42.654;23.376;2023-05-21T20:18:40;18.00;16.40
1103;DHT22;538;42.654;23.376;2023-05-21T20:21:16;18.00;16.90
1103;DHT22;538;42.654;23.376;2023-05-21T20:23:44;18.10;17.60
1103;DHT22;538;42.654;23.376;2023-05-21T20:28:40;18.00;17.90
1103;DHT22;538;42.654;23.376;2023-05-21T20:33:35;17.90;16.50
1103;DHT22;538;42.654;23.376;2023-05-21T20:36:05;17.70;16.60
1103;DHT22;538;42.654;23.376;2023-05-21T20:38:34;17.80;16.80
1103;DHT22;538;42.654;23.376;2023-05-21T20:41:03;17.80;17.40
1103;DHT22;538;42.654;23.376;2023-05-21T20:43:30;17.70;17.80
1103;DHT22;538;42.654;23.376;2023-05-21T20:46:01;17.70;18.30
1103;DHT22;538;42.654;23.376;2023-05-21T20:55:58;17.60;19.30
1103;DHT22;538;42.654;23.376;2023-05-21T21:03:20;17.20;19.30
1103;DHT22;538;42.654;23.376;2023-05-21T21:05:48;17.50;19.50
1103;DHT22;538;42.654;23.376;2023-05-21T21:08:17;17.20;19.60
1103;DHT22;538;42.654;23.376;2023-05-21T21:10:44;17.20;19.70
1103;DHT22;538;42.654;23.376;2023-05-21T21:13:13;17.20;20.00
1103;DHT22;538;42.654;23.376;2023-05-21T21:15:40;17.20;20.10
1103;DHT22;538;42.654;23.376;2023-05-21T21:18:08;17.10;20.10
1103;DHT22;538;42.654;23.376;2023-05-21T21:20:37;17.10;20.30
1103;DHT22;538;42.654;23.376;2023-05-21T21:25:36;17.20;20.60
1103;DHT22;538;42.654;23.376;2023-05-21T21:28:03;17.20;20.70
1103;DHT22;538;42.654;23.376;2023-05-21T21:30:34;17.00;20.50
1103;DHT22;538;42.654;23.376;2023-05-21T21:33:01;17.10;20.60
1103;DHT22;538;42.654;23.376;2023-05-21T21:35:28;17.00;20.60
1103;DHT22;538;42.654;23.376;2023-05-21T21:40:26;16.90;21.10
1103;DHT22;538;42.654;23.376;2023-05-21T21:42:53;16.80;21.60
1103;DHT22;538;42.654;23.376;2023-05-21T21:47:49;15.50;21.00
1103;DHT22;538;42.654;23.376;2023-05-21T21:50:16;16.70;22.20
1103;DHT22;538;42.654;23.376;2023-05-21T21:52:44;16.60;22.10
1103;DHT22;538;42.654;23.376;2023-05-21T22:00:09;16.20;22.80
1103;DHT22;538;42.654;23.376;2023-05-21T22:02:40;16.20;23.20
1103;DHT22;538;42.654;23.376;2023-05-21T22:05:09;16.30;23.10
1103;DHT22;538;42.654;23.376;2023-05-21T22:10:07;16.50;23.30
1103;DHT22;538;42.654;23.376;2023-05-21T22:15:03;16.40;23.60
1103;DHT22;538;42.654;23.376;2023-05-21T22:20:00;16.40;23.70
1103;DHT22;538;42.654;23.376;2023-05-21T22:22:28;16.40;23.70